createdAt,value
2023-03-31T00:00:18.076Z,21.80
2023-03-31T00:01:18.080Z,21.83
2023-03-31T00:02:18.144Z,21.85
2023-03-31T00:03:18.258Z,21.84
2023-03-31T00:04:18.295Z,21.86
2023-03-31T00:05:18.390Z,21.86
2023-03-31T00:06:18.889Z,21.86
2023-03-31T00:07:18.273Z,21.87
2023-03-31T00:08:18.305Z,21.87
2023-03-31T00:09:18.336Z,21.87
2023-03-31T00:10:18.856Z,21.87
2023-03-31T00:11:18.406Z,21.87
2023-03-31T00:12:18.457Z,21.87
2023-03-31T00:13:18.479Z,21.86
2023-03-31T00:14:18.511Z,21.87
2023-03-31T00:15:18.552Z,21.87
2023-03-31T00:16:18.632Z,21.87
2023-03-31T00:17:18.642Z,21.87
2023-03-31T00:18:18.679Z,21.87
2023-03-31T00:19:18.730Z,21.86
2023-03-31T00:20:18.764Z,21.86
2023-03-31T00:21:18.810Z,21.87
2023-03-31T00:22:18.868Z,21.87
2023-03-31T00:23:18.889Z,21.87
2023-03-31T00:24:18.949Z,21.86
2023-03-31T00:25:18.983Z,21.86
2023-03-31T00:26:19.027Z,21.85
2023-03-31T00:27:19.057Z,21.85
2023-03-31T00:28:19.130Z,21.86
2023-03-31T00:29:19.146Z,21.86
2023-03-31T00:30:19.186Z,21.87
2023-03-31T00:31:19.257Z,21.86
2023-03-31T00:32:19.268Z,21.86
2023-03-31T00:33:19.309Z,21.85
2023-03-31T00:34:19.350Z,21.86
2023-03-31T00:35:19.398Z,21.85
2023-03-31T00:36:19.467Z,21.85
2023-03-31T00:37:19.470Z,21.85
2023-03-31T00:38:19.512Z,21.86
2023-03-31T00:39:19.552Z,21.86
2023-03-31T00:40:19.586Z,21.85
2023-03-31T00:41:19.637Z,21.85
2023-03-31T00:42:19.662Z,21.85
2023-03-31T00:43:19.709Z,21.85
2023-03-31T00:44:19.783Z,21.86
2023-03-31T00:45:19.782Z,21.85
2023-03-31T00:46:19.859Z,21.84
2023-03-31T00:47:19.873Z,21.85
2023-03-31T00:48:19.917Z,21.85
2023-03-31T00:49:19.949Z,21.85
2023-03-31T00:50:19.978Z,21.85
2023-03-31T00:51:20.038Z,21.85
2023-03-31T00:52:20.068Z,21.85
2023-03-31T00:53:20.099Z,21.86
2023-03-31T00:54:20.142Z,21.86
2023-03-31T00:55:20.195Z,21.85
2023-03-31T00:56:20.241Z,21.86
2023-03-31T00:57:20.329Z,21.85
2023-03-31T00:58:20.407Z,21.85
2023-03-31T00:59:20.338Z,21.85
2023-03-31T01:00:20.412Z,21.84
2023-03-31T01:01:20.457Z,21.84
2023-03-31T01:02:20.808Z,21.85
2023-03-31T01:03:20.529Z,21.85
2023-03-31T01:04:20.541Z,21.85
2023-03-31T01:05:20.589Z,21.86
2023-03-31T01:06:20.627Z,21.85
2023-03-31T01:07:20.668Z,21.85
2023-03-31T01:08:20.702Z,21.84
2023-03-31T01:09:20.745Z,21.84
2023-03-31T01:10:20.791Z,21.85
2023-03-31T01:11:20.830Z,21.85
2023-03-31T01:12:20.867Z,21.85
2023-03-31T01:13:20.905Z,21.85
2023-03-31T01:14:20.963Z,21.85
2023-03-31T01:15:20.998Z,21.85
2023-03-31T01:16:21.157Z,21.85
2023-03-31T01:17:21.162Z,21.84
2023-03-31T01:18:21.347Z,21.84
2023-03-31T01:19:21.176Z,21.84
2023-03-31T01:20:21.260Z,21.84
2023-03-31T01:21:21.268Z,21.84
2023-03-31T01:22:21.310Z,21.84
2023-03-31T01:23:21.357Z,21.84
2023-03-31T01:24:21.398Z,21.84
2023-03-31T01:25:21.441Z,21.83
2023-03-31T01:26:21.498Z,21.84
2023-03-31T01:27:21.529Z,21.84
2023-03-31T01:28:21.577Z,21.84
2023-03-31T01:29:21.621Z,21.84
2023-03-31T01:30:21.656Z,21.84
2023-03-31T01:31:21.753Z,21.84
2023-03-31T01:32:21.773Z,21.83
2023-03-31T01:33:21.796Z,21.84
2023-03-31T01:34:21.843Z,21.83
2023-03-31T01:35:21.960Z,21.83
2023-03-31T01:36:21.916Z,21.83
2023-03-31T01:37:21.966Z,21.83
2023-03-31T01:38:22.003Z,21.82
2023-03-31T01:39:22.071Z,21.83
2023-03-31T01:40:22.092Z,21.82
2023-03-31T01:41:22.131Z,21.83
2023-03-31T01:42:22.172Z,21.83
2023-03-31T01:43:22.214Z,21.83
2023-03-31T01:44:22.270Z,21.83
2023-03-31T01:45:22.297Z,21.83
2023-03-31T01:46:22.402Z,21.83
2023-03-31T01:47:22.390Z,21.83
2023-03-31T01:48:22.453Z,21.82
2023-03-31T01:49:22.474Z,21.83
2023-03-31T01:50:22.523Z,21.83
2023-03-31T01:51:22.570Z,21.84
2023-03-31T01:52:22.691Z,21.84
2023-03-31T01:53:22.724Z,21.84
2023-03-31T01:54:22.695Z,21.83
2023-03-31T01:55:22.728Z,21.82
2023-03-31T01:56:22.772Z,21.83
2023-03-31T01:57:22.897Z,21.82
2023-03-31T01:58:22.854Z,21.82
2023-03-31T01:59:22.912Z,21.82
2023-03-31T02:00:22.945Z,21.83
2023-03-31T02:01:23.032Z,21.83
2023-03-31T02:02:23.096Z,21.83
2023-03-31T02:03:23.122Z,21.83
2023-03-31T02:04:23.142Z,21.82
2023-03-31T02:05:23.152Z,21.83
2023-03-31T02:06:23.194Z,21.83
2023-03-31T02:07:23.232Z,21.83
2023-03-31T02:08:23.269Z,21.83
2023-03-31T02:09:23.349Z,21.83
2023-03-31T02:10:23.357Z,21.82
2023-03-31T02:11:23.403Z,21.82
2023-03-31T02:12:23.437Z,21.82
2023-03-31T02:13:23.486Z,21.82
2023-03-31T02:14:23.529Z,21.83
2023-03-31T02:15:23.573Z,21.82
2023-03-31T02:16:23.645Z,21.83
2023-03-31T02:17:23.695Z,21.82
2023-03-31T02:18:23.702Z,21.82
2023-03-31T02:19:23.752Z,21.81
2023-03-31T02:20:23.818Z,21.82
2023-03-31T02:21:23.832Z,21.81
2023-03-31T02:22:23.882Z,21.82
2023-03-31T02:23:23.927Z,21.82
2023-03-31T02:24:23.975Z,21.81
2023-03-31T02:25:24.027Z,21.82
2023-03-31T02:26:24.064Z,21.83
2023-03-31T02:27:24.105Z,21.81
2023-03-31T02:28:24.149Z,21.81
2023-03-31T02:29:24.197Z,21.80
2023-03-31T02:30:24.239Z,21.81
2023-03-31T02:31:24.346Z,21.81
2023-03-31T02:32:24.408Z,21.81
2023-03-31T02:33:24.372Z,21.82
2023-03-31T02:34:24.421Z,21.81
2023-03-31T02:35:24.517Z,21.80
2023-03-31T02:36:24.516Z,21.81
2023-03-31T02:37:24.526Z,21.81
2023-03-31T02:38:24.566Z,21.80
2023-03-31T02:39:24.601Z,21.80
2023-03-31T02:40:24.646Z,21.81
2023-03-31T02:41:24.685Z,21.79
2023-03-31T02:42:24.741Z,21.80
2023-03-31T02:43:24.788Z,21.80
2023-03-31T02:44:24.818Z,21.80
2023-03-31T02:45:24.906Z,21.80
2023-03-31T02:46:24.978Z,21.80
2023-03-31T02:47:24.972Z,21.80
2023-03-31T02:48:24.978Z,21.79
2023-03-31T02:49:25.011Z,21.80
2023-03-31T02:50:25.045Z,21.80
2023-03-31T02:51:25.089Z,21.81
2023-03-31T02:52:25.162Z,21.80
2023-03-31T02:53:25.163Z,21.80
2023-03-31T02:54:25.195Z,21.80
2023-03-31T02:55:25.244Z,21.80
2023-03-31T02:56:25.296Z,21.79
2023-03-31T02:57:25.373Z,21.79
2023-03-31T02:58:25.343Z,21.79
2023-03-31T02:59:25.378Z,21.79
2023-03-31T03:00:25.417Z,21.79
2023-03-31T03:01:25.562Z,21.79
2023-03-31T03:02:25.578Z,21.79
2023-03-31T03:03:25.627Z,21.79
2023-03-31T03:04:25.583Z,21.80
2023-03-31T03:05:25.616Z,21.79
2023-03-31T03:06:25.659Z,21.81
2023-03-31T03:07:25.697Z,21.80
2023-03-31T03:08:25.767Z,21.80
2023-03-31T03:09:25.778Z,21.80
2023-03-31T03:10:25.816Z,21.80
2023-03-31T03:11:25.855Z,21.80
2023-03-31T03:12:25.894Z,21.81
2023-03-31T03:13:25.930Z,21.80
2023-03-31T03:14:25.998Z,21.80
2023-03-31T03:15:26.010Z,21.79
2023-03-31T03:16:26.068Z,21.80
2023-03-31T03:17:26.155Z,21.80
2023-03-31T03:18:26.133Z,21.81
2023-03-31T03:19:26.166Z,21.80
2023-03-31T03:20:26.202Z,21.80
2023-03-31T03:21:26.235Z,21.80
2023-03-31T03:22:26.292Z,21.80
2023-03-31T03:23:26.333Z,21.81
2023-03-31T03:24:26.404Z,21.85
2023-03-31T03:25:26.397Z,21.88
2023-03-31T03:26:26.426Z,21.90
2023-03-31T03:27:26.463Z,21.93
2023-03-31T03:28:26.492Z,21.93
2023-03-31T03:29:26.534Z,21.95
2023-03-31T03:30:26.565Z,21.97
2023-03-31T03:31:26.811Z,21.98
2023-03-31T03:32:26.636Z,21.98
2023-03-31T03:33:26.671Z,21.99
2023-03-31T03:34:26.705Z,22.01
2023-03-31T03:35:26.748Z,22.02
2023-03-31T03:36:26.951Z,22.02
2023-03-31T03:37:26.807Z,22.04
2023-03-31T03:38:26.845Z,22.05
2023-03-31T03:39:26.864Z,22.05
2023-03-31T03:40:26.918Z,22.06
2023-03-31T03:41:26.942Z,22.07
2023-03-31T03:42:26.930Z,22.07
2023-03-31T03:43:26.957Z,22.08
2023-03-31T03:44:26.977Z,22.08
2023-03-31T03:45:27.019Z,22.08
2023-03-31T03:46:27.054Z,22.09
2023-03-31T03:47:27.150Z,22.09
2023-03-31T03:48:27.071Z,22.08
2023-03-31T03:49:27.092Z,22.09
2023-03-31T03:50:27.108Z,22.08
2023-03-31T03:51:27.119Z,22.08
2023-03-31T03:52:27.130Z,22.07
2023-03-31T03:53:27.147Z,22.08
2023-03-31T03:54:27.156Z,22.08
2023-03-31T03:55:27.171Z,22.08
2023-03-31T03:56:27.218Z,22.08
2023-03-31T03:57:27.296Z,22.09
2023-03-31T03:58:27.218Z,22.09
2023-03-31T03:59:27.223Z,22.09
2023-03-31T04:00:27.242Z,22.10
2023-03-31T04:01:27.254Z,22.10
2023-03-31T04:02:28.162Z,22.10
2023-03-31T04:03:27.349Z,22.10
2023-03-31T04:04:27.315Z,22.10
2023-03-31T04:05:27.426Z,22.10
2023-03-31T04:06:27.326Z,22.10
2023-03-31T04:07:27.342Z,22.11
2023-03-31T04:08:27.352Z,22.11
2023-03-31T04:09:27.362Z,22.11
2023-03-31T04:10:27.367Z,22.12
2023-03-31T04:11:27.375Z,22.12
2023-03-31T04:12:27.432Z,22.11
2023-03-31T04:13:27.396Z,22.11
2023-03-31T04:14:27.415Z,22.12
2023-03-31T04:15:27.435Z,22.12
2023-03-31T04:16:27.531Z,22.13
2023-03-31T04:17:27.454Z,22.14
2023-03-31T04:18:27.443Z,22.13
2023-03-31T04:19:27.519Z,22.13
2023-03-31T04:20:27.460Z,22.14
2023-03-31T04:21:27.481Z,22.13
2023-03-31T04:22:27.487Z,22.12
2023-03-31T04:23:27.555Z,22.13
2023-03-31T04:24:27.518Z,22.13
2023-03-31T04:25:27.572Z,22.14
2023-03-31T04:26:27.536Z,22.13
2023-03-31T04:27:27.545Z,22.13
2023-03-31T04:28:27.578Z,22.13
2023-03-31T04:29:27.570Z,22.13
2023-03-31T04:30:27.576Z,22.12
2023-03-31T04:31:27.612Z,22.12
2023-03-31T04:32:27.599Z,22.12
2023-03-31T04:33:27.597Z,22.12
2023-03-31T04:34:27.607Z,22.12
2023-03-31T04:35:27.612Z,22.12
2023-03-31T04:36:27.688Z,22.12
2023-03-31T04:37:27.609Z,22.12
2023-03-31T04:38:27.600Z,22.13
2023-03-31T04:39:27.614Z,22.14
2023-03-31T04:40:27.632Z,22.13
2023-03-31T04:41:27.661Z,22.14
2023-03-31T04:42:27.643Z,22.14
2023-03-31T04:43:27.667Z,22.14
2023-03-31T04:44:27.790Z,22.14
2023-03-31T04:45:27.720Z,22.14
2023-03-31T04:46:27.721Z,22.14
2023-03-31T04:47:27.709Z,22.14
2023-03-31T04:48:27.666Z,22.13
2023-03-31T04:49:27.674Z,22.12
2023-03-31T04:50:27.677Z,22.14
2023-03-31T04:51:27.686Z,22.13
2023-03-31T04:52:27.694Z,22.14
2023-03-31T04:53:27.691Z,22.14
2023-03-31T04:54:27.713Z,22.15
2023-03-31T04:55:27.706Z,22.14
2023-03-31T04:56:27.712Z,22.14
2023-03-31T04:57:27.794Z,22.14
2023-03-31T04:58:27.721Z,22.15
2023-03-31T04:59:27.720Z,22.14
2023-03-31T05:00:27.753Z,22.14
2023-03-31T05:01:27.774Z,22.14
2023-03-31T05:02:28.338Z,22.14
2023-03-31T05:03:27.889Z,22.15
2023-03-31T05:04:27.752Z,22.15
2023-03-31T05:05:27.771Z,22.15
2023-03-31T05:06:27.769Z,22.14
2023-03-31T05:07:27.775Z,22.15
2023-03-31T05:08:27.785Z,22.15
2023-03-31T05:09:27.790Z,22.15
2023-03-31T05:10:27.800Z,22.15
2023-03-31T05:11:27.796Z,22.16
2023-03-31T05:12:27.804Z,22.15
2023-03-31T05:13:27.818Z,22.17
2023-03-31T05:14:27.827Z,22.16
2023-03-31T05:15:27.833Z,22.17
2023-03-31T05:16:27.900Z,22.17
2023-03-31T05:17:28.114Z,22.17
2023-03-31T05:18:27.869Z,22.17
2023-03-31T05:19:27.891Z,22.17
2023-03-31T05:20:27.890Z,22.17
2023-03-31T05:21:27.906Z,22.17
2023-03-31T05:22:28.099Z,22.17
2023-03-31T05:23:27.925Z,22.18
2023-03-31T05:24:27.935Z,22.18
2023-03-31T05:25:27.939Z,22.19
2023-03-31T05:26:28.106Z,22.19
2023-03-31T05:27:27.960Z,22.19
2023-03-31T05:28:28.375Z,22.19
2023-03-31T05:29:27.978Z,22.20
2023-03-31T05:30:28.005Z,22.19
2023-03-31T05:31:28.021Z,22.21
2023-03-31T05:32:28.192Z,22.20
2023-03-31T05:33:28.024Z,22.21
2023-03-31T05:34:28.032Z,22.22
2023-03-31T05:35:28.053Z,22.22
2023-03-31T05:36:28.145Z,22.22
2023-03-31T05:37:28.052Z,22.22
2023-03-31T05:38:28.055Z,22.23
2023-03-31T05:39:29.068Z,22.22
2023-03-31T05:40:28.073Z,22.24
2023-03-31T05:41:28.111Z,22.23
2023-03-31T05:42:28.080Z,22.23
2023-03-31T05:43:28.105Z,22.22
2023-03-31T05:44:28.106Z,22.23
2023-03-31T05:45:28.111Z,22.24
2023-03-31T05:46:28.195Z,22.24
2023-03-31T05:47:28.137Z,22.24
2023-03-31T05:48:28.167Z,22.25
2023-03-31T05:49:28.628Z,22.24
2023-03-31T05:50:28.149Z,22.21
2023-03-31T05:51:28.170Z,22.12
2023-03-31T05:52:28.203Z,22.08
2023-03-31T05:53:28.612Z,21.97
2023-03-31T05:54:28.612Z,21.89
2023-03-31T05:55:28.303Z,21.78
2023-03-31T05:56:28.366Z,21.68
2023-03-31T05:57:28.498Z,21.58
2023-03-31T05:58:28.612Z,21.51
2023-03-31T05:59:28.550Z,21.50
2023-03-31T06:00:31.827Z,21.48
2023-03-31T06:01:28.665Z,21.48
2023-03-31T06:02:28.726Z,21.50
2023-03-31T06:03:29.188Z,21.53
2023-03-31T06:04:28.686Z,21.57
2023-03-31T06:05:28.612Z,21.58
2023-03-31T06:06:28.619Z,21.61
2023-03-31T06:07:28.617Z,21.64
2023-03-31T06:08:29.127Z,21.67
2023-03-31T06:09:31.840Z,21.68
2023-03-31T06:10:28.975Z,21.70
2023-03-31T06:11:28.613Z,21.72
2023-03-31T06:12:28.601Z,21.72
2023-03-31T06:13:28.618Z,21.72
2023-03-31T06:14:28.595Z,21.74
2023-03-31T06:15:28.588Z,21.76
2023-03-31T06:16:28.708Z,21.78
2023-03-31T06:17:28.637Z,21.79
2023-03-31T06:18:28.831Z,21.80
2023-03-31T06:19:28.572Z,21.83
2023-03-31T06:20:28.849Z,21.83
2023-03-31T06:21:28.568Z,21.85
2023-03-31T06:22:28.555Z,21.87
2023-03-31T06:23:28.618Z,21.89
2023-03-31T06:24:28.809Z,21.91
2023-03-31T06:25:34.503Z,21.93
2023-03-31T06:26:28.549Z,21.94
2023-03-31T06:27:28.523Z,21.93
2023-03-31T06:28:28.619Z,21.93
2023-03-31T06:29:28.524Z,21.93
2023-03-31T06:30:28.504Z,21.93
2023-03-31T06:31:28.529Z,21.95
2023-03-31T06:32:28.489Z,21.95
2023-03-31T06:33:28.627Z,21.95
2023-03-31T06:34:28.463Z,21.96
2023-03-31T06:35:29.456Z,21.97
2023-03-31T06:36:28.474Z,21.95
2023-03-31T06:37:28.431Z,21.97
2023-03-31T06:38:28.623Z,21.99
2023-03-31T06:39:28.409Z,22.01
2023-03-31T06:40:28.640Z,22.08
2023-03-31T06:41:28.397Z,22.22
2023-03-31T06:42:31.595Z,22.24
2023-03-31T06:43:28.395Z,22.76
2023-03-31T06:44:28.365Z,23.28
2023-03-31T06:45:28.373Z,23.08
2023-03-31T06:46:28.409Z,22.93
2023-03-31T06:47:28.356Z,22.73
2023-03-31T06:48:28.640Z,22.59
2023-03-31T06:49:28.300Z,22.49
2023-03-31T06:50:28.285Z,22.43
2023-03-31T06:51:29.281Z,22.42
2023-03-31T06:52:28.279Z,22.45
2023-03-31T06:53:28.684Z,22.50
2023-03-31T06:54:28.264Z,22.53
2023-03-31T06:55:28.234Z,22.56
2023-03-31T06:56:28.245Z,22.58
2023-03-31T06:57:28.267Z,22.60
2023-03-31T06:58:31.148Z,22.62
2023-03-31T06:59:29.678Z,22.62
2023-03-31T07:00:28.190Z,22.64
2023-03-31T07:01:28.147Z,22.65
2023-03-31T07:02:28.196Z,22.66
2023-03-31T07:03:28.167Z,22.68
2023-03-31T07:04:28.134Z,22.68
2023-03-31T07:05:28.064Z,22.69
2023-03-31T07:06:28.024Z,22.69
2023-03-31T07:07:28.002Z,22.68
2023-03-31T07:08:28.155Z,22.69
2023-03-31T07:09:27.980Z,22.70
2023-03-31T07:10:27.959Z,22.70
2023-03-31T07:11:27.977Z,22.71
2023-03-31T07:12:27.933Z,22.71
2023-03-31T07:13:28.134Z,22.71
2023-03-31T07:14:27.917Z,22.72
2023-03-31T07:15:27.892Z,22.72
2023-03-31T07:16:27.943Z,22.72
2023-03-31T07:17:28.207Z,22.73
2023-03-31T07:18:27.855Z,22.73
2023-03-31T07:19:27.843Z,22.74
2023-03-31T07:20:27.814Z,22.74
2023-03-31T07:21:27.787Z,22.75
2023-03-31T07:22:27.784Z,22.75
2023-03-31T07:23:28.146Z,22.76
2023-03-31T07:24:27.801Z,22.78
2023-03-31T07:25:27.760Z,22.79
2023-03-31T07:26:27.756Z,22.81
2023-03-31T07:27:27.771Z,22.83
2023-03-31T07:28:28.140Z,22.84
2023-03-31T07:29:27.818Z,22.89
2023-03-31T07:30:27.857Z,23.33
2023-03-31T07:31:27.889Z,23.27
2023-03-31T07:32:29.124Z,23.19
2023-03-31T07:33:28.160Z,23.12
2023-03-31T07:34:27.952Z,23.06
2023-03-31T07:35:27.982Z,23.03
2023-03-31T07:36:27.992Z,23.01
2023-03-31T07:37:27.936Z,23.01
2023-03-31T07:38:28.144Z,23.01
2023-03-31T07:39:28.147Z,23.00
2023-03-31T07:40:28.223Z,23.00
2023-03-31T07:41:27.845Z,23.00
2023-03-31T07:42:28.783Z,23.02
2023-03-31T07:43:27.813Z,23.05
2023-03-31T07:44:28.168Z,23.11
2023-03-31T07:45:28.149Z,23.18
2023-03-31T07:46:27.767Z,23.17
2023-03-31T07:47:27.860Z,23.13
2023-03-31T07:48:27.672Z,23.07
2023-03-31T07:49:28.149Z,23.02
2023-03-31T07:50:27.660Z,22.99
2023-03-31T07:51:28.701Z,22.97
2023-03-31T07:52:27.740Z,22.94
2023-03-31T07:53:27.791Z,22.93
2023-03-31T07:54:28.144Z,22.91
2023-03-31T07:55:28.168Z,22.89
2023-03-31T07:56:27.963Z,22.87
2023-03-31T07:57:28.028Z,22.86
2023-03-31T07:58:28.150Z,22.84
2023-03-31T07:59:28.102Z,22.84
2023-03-31T08:00:28.166Z,22.85
2023-03-31T08:01:28.193Z,22.87
2023-03-31T08:02:28.390Z,22.97
2023-03-31T08:03:28.651Z,23.01
2023-03-31T08:04:28.681Z,22.99
2023-03-31T08:05:28.373Z,23.00
2023-03-31T08:06:28.419Z,22.99
2023-03-31T08:07:28.459Z,23.00
2023-03-31T08:08:28.653Z,23.02
2023-03-31T08:09:28.659Z,23.02
2023-03-31T08:10:28.580Z,23.03
2023-03-31T08:11:29.158Z,23.03
2023-03-31T08:12:29.184Z,23.03
2023-03-31T08:13:29.653Z,23.03
2023-03-31T08:14:39.994Z,23.03
2023-03-31T08:15:28.752Z,23.02
2023-03-31T08:16:28.715Z,23.01
2023-03-31T08:17:28.692Z,23.02
2023-03-31T08:18:28.629Z,23.02
2023-03-31T08:19:28.602Z,23.02
2023-03-31T08:20:28.583Z,23.02
2023-03-31T08:21:28.660Z,23.01
2023-03-31T08:22:28.510Z,23.00
2023-03-31T08:23:29.490Z,23.01
2023-03-31T08:24:28.462Z,23.00
2023-03-31T08:25:28.450Z,23.00
2023-03-31T08:26:28.669Z,23.01
2023-03-31T08:27:28.400Z,23.00
2023-03-31T08:28:28.410Z,23.01
2023-03-31T08:29:28.342Z,23.03
2023-03-31T08:30:28.543Z,23.04
2023-03-31T08:31:27.750Z,23.05
2023-03-31T08:32:28.351Z,23.07
2023-03-31T08:33:28.371Z,23.10
2023-03-31T08:34:28.403Z,23.12
2023-03-31T08:35:28.658Z,23.13
2023-03-31T08:36:28.518Z,23.13
2023-03-31T08:37:28.671Z,23.14
2023-03-31T08:38:28.555Z,23.14
2023-03-31T08:39:28.593Z,23.13
2023-03-31T08:40:28.623Z,23.12
2023-03-31T08:41:28.678Z,23.11
2023-03-31T08:42:29.171Z,23.12
2023-03-31T08:43:28.752Z,23.17
2023-03-31T08:44:28.786Z,23.27
2023-03-31T08:45:29.193Z,23.33
2023-03-31T08:46:28.829Z,23.38
2023-03-31T08:47:29.226Z,23.38
2023-03-31T08:48:28.838Z,23.43
2023-03-31T08:49:28.847Z,23.47
2023-03-31T08:50:28.863Z,23.48
2023-03-31T08:51:28.876Z,23.45
2023-03-31T08:52:29.169Z,23.44
2023-03-31T08:53:29.133Z,23.49
2023-03-31T08:54:29.089Z,23.51
2023-03-31T08:55:28.916Z,23.53
2023-03-31T08:56:28.949Z,23.56
2023-03-31T08:57:29.346Z,23.57
2023-03-31T08:58:28.962Z,23.58
2023-03-31T08:59:29.197Z,23.58
2023-03-31T09:00:29.000Z,23.59
2023-03-31T09:01:29.546Z,23.60
2023-03-31T09:02:29.447Z,23.61
2023-03-31T09:03:29.111Z,23.62
2023-03-31T09:04:29.009Z,23.64
2023-03-31T09:05:29.060Z,23.65
2023-03-31T09:06:29.178Z,23.68
2023-03-31T09:07:29.023Z,23.71
2023-03-31T09:08:29.019Z,23.73
2023-03-31T09:09:29.008Z,23.76
2023-03-31T09:10:29.188Z,23.78
2023-03-31T09:11:29.004Z,23.80
2023-03-31T09:12:29.010Z,23.81
2023-03-31T09:13:29.194Z,23.88
2023-03-31T09:14:29.207Z,23.91
2023-03-31T09:15:28.942Z,23.98
2023-03-31T09:16:28.928Z,24.03
2023-03-31T09:17:28.911Z,24.03
2023-03-31T09:18:29.179Z,24.08
2023-03-31T09:19:28.824Z,24.08
2023-03-31T09:20:28.806Z,24.10
2023-03-31T09:21:28.806Z,24.14
2023-03-31T09:22:29.218Z,24.18
2023-03-31T09:23:28.837Z,24.23
2023-03-31T09:24:29.810Z,24.25
2023-03-31T09:25:28.674Z,24.27
2023-03-31T09:26:28.719Z,24.29
2023-03-31T09:27:28.580Z,24.32
2023-03-31T09:28:28.548Z,24.30
2023-03-31T09:29:28.687Z,24.27
2023-03-31T09:30:28.479Z,24.17
2023-03-31T09:31:28.462Z,24.09
2023-03-31T09:32:28.516Z,23.98
2023-03-31T09:33:28.390Z,23.87
2023-03-31T09:34:28.690Z,23.80
2023-03-31T09:35:28.356Z,23.77
2023-03-31T09:36:28.390Z,23.73
2023-03-31T09:37:28.719Z,23.75
2023-03-31T09:38:28.257Z,23.73
2023-03-31T09:39:28.242Z,23.66
2023-03-31T09:40:28.263Z,23.62
2023-03-31T09:41:29.223Z,23.56
2023-03-31T09:42:28.296Z,23.50
2023-03-31T09:43:28.165Z,23.45
2023-03-31T09:44:28.135Z,23.41
2023-03-31T09:45:28.136Z,23.38
2023-03-31T09:46:28.144Z,23.40
2023-03-31T09:47:28.261Z,23.38
2023-03-31T09:48:28.467Z,23.43
2023-03-31T09:49:28.701Z,23.46
2023-03-31T09:50:28.202Z,23.50
2023-03-31T09:51:28.019Z,23.45
2023-03-31T09:52:28.012Z,23.39
2023-03-31T09:53:27.998Z,23.35
2023-03-31T09:54:28.193Z,23.34
2023-03-31T09:55:38.945Z,23.32
2023-03-31T09:56:28.009Z,23.27
2023-03-31T09:57:29.014Z,23.24
2023-03-31T09:58:27.984Z,23.20
2023-03-31T09:59:27.964Z,23.19
2023-03-31T10:00:27.952Z,23.14
2023-03-31T10:01:27.965Z,23.13
2023-03-31T10:02:27.977Z,23.14
2023-03-31T10:03:27.960Z,23.12
2023-03-31T10:04:28.012Z,23.10
2023-03-31T10:05:28.214Z,23.11
2023-03-31T10:06:27.866Z,23.10
2023-03-31T10:07:27.854Z,23.13
2023-03-31T10:08:27.837Z,23.14
2023-03-31T10:09:27.826Z,23.15
2023-03-31T10:10:28.231Z,23.15
2023-03-31T10:11:27.792Z,23.16
2023-03-31T10:12:27.784Z,23.18
2023-03-31T10:13:27.765Z,23.15
2023-03-31T10:14:27.759Z,23.14
2023-03-31T10:15:28.216Z,23.13
2023-03-31T10:16:28.265Z,23.13
2023-03-31T10:17:27.781Z,23.10
2023-03-31T10:18:27.721Z,23.09
2023-03-31T10:19:27.679Z,23.11
2023-03-31T10:20:27.737Z,23.12
2023-03-31T10:21:27.649Z,23.15
2023-03-31T10:22:27.635Z,23.16
2023-03-31T10:23:27.633Z,23.19
2023-03-31T10:24:27.673Z,23.18
2023-03-31T10:25:28.230Z,23.17
2023-03-31T10:26:28.240Z,23.16
2023-03-31T10:27:27.823Z,23.17
2023-03-31T10:28:27.837Z,23.12
2023-03-31T10:29:27.857Z,23.04
2023-03-31T10:30:28.218Z,22.97
2023-03-31T10:31:27.940Z,22.96
2023-03-31T10:32:27.840Z,22.95
2023-03-31T10:33:27.870Z,22.93
2023-03-31T10:34:27.865Z,22.93
2023-03-31T10:35:28.212Z,22.92
2023-03-31T10:36:27.997Z,22.90
2023-03-31T10:37:28.040Z,22.88
2023-03-31T10:38:28.005Z,22.88
2023-03-31T10:39:28.225Z,22.86
2023-03-31T10:40:28.082Z,22.86
2023-03-31T10:41:28.181Z,22.85
2023-03-31T10:42:28.128Z,22.83
2023-03-31T10:43:28.164Z,22.81
2023-03-31T10:44:28.192Z,22.80
2023-03-31T10:45:37.223Z,22.79
2023-03-31T10:46:28.239Z,22.75
2023-03-31T10:47:28.227Z,22.74
2023-03-31T10:48:28.192Z,22.72
2023-03-31T10:49:28.190Z,22.70
2023-03-31T10:50:28.165Z,22.69
2023-03-31T10:51:28.192Z,22.67
2023-03-31T10:52:28.246Z,22.66
2023-03-31T10:53:28.140Z,22.63
2023-03-31T10:54:28.144Z,22.60
2023-03-31T10:55:28.239Z,22.58
2023-03-31T10:56:28.129Z,22.56
2023-03-31T10:57:28.130Z,22.54
2023-03-31T10:58:28.098Z,22.53
2023-03-31T10:59:28.085Z,22.52
2023-03-31T11:00:28.077Z,22.50
2023-03-31T11:01:28.086Z,22.49
2023-03-31T11:02:28.104Z,22.49
2023-03-31T11:03:28.157Z,22.48
2023-03-31T11:04:28.046Z,22.47
2023-03-31T11:05:28.028Z,22.47
2023-03-31T11:06:28.219Z,22.46
2023-03-31T11:07:28.037Z,22.45
2023-03-31T11:08:28.046Z,22.44
2023-03-31T11:09:28.004Z,22.43
2023-03-31T11:10:27.995Z,22.43
2023-03-31T11:11:28.219Z,22.43
2023-03-31T11:12:28.008Z,22.43
2023-03-31T11:13:28.014Z,22.43
2023-03-31T11:14:30.516Z,22.43
2023-03-31T11:15:27.968Z,22.42
2023-03-31T11:16:28.401Z,22.41
2023-03-31T11:17:28.063Z,22.39
2023-03-31T11:18:27.941Z,22.39
2023-03-31T11:19:27.942Z,22.38
2023-03-31T11:20:30.301Z,22.37
2023-03-31T11:21:28.219Z,22.36
2023-03-31T11:22:27.926Z,22.36
2023-03-31T11:23:27.918Z,22.35
2023-03-31T11:24:27.959Z,22.34
2023-03-31T11:25:27.910Z,22.34
2023-03-31T11:26:30.746Z,22.33
2023-03-31T11:27:27.908Z,22.32
2023-03-31T11:28:27.918Z,22.31
2023-03-31T11:29:27.893Z,22.31
2023-03-31T11:30:28.231Z,22.30
2023-03-31T11:31:27.921Z,22.29
2023-03-31T11:32:30.770Z,22.28
2023-03-31T11:33:27.849Z,22.26
2023-03-31T11:34:27.832Z,22.26
2023-03-31T11:35:27.833Z,22.26
2023-03-31T11:36:27.835Z,22.25
2023-03-31T11:37:27.823Z,22.24
2023-03-31T11:38:27.793Z,22.23
2023-03-31T11:39:27.782Z,22.21
2023-03-31T11:40:27.808Z,22.20
2023-03-31T11:41:27.758Z,22.19
2023-03-31T11:42:27.756Z,22.18
2023-03-31T11:43:27.740Z,22.16
2023-03-31T11:44:27.733Z,22.15
2023-03-31T11:45:27.713Z,22.14
2023-03-31T11:46:27.808Z,22.13
2023-03-31T11:47:27.709Z,22.13
2023-03-31T11:48:27.691Z,22.12
2023-03-31T11:49:27.681Z,22.11
2023-03-31T11:50:27.697Z,22.09
2023-03-31T11:51:27.663Z,22.09
2023-03-31T11:52:27.740Z,22.09
2023-03-31T11:53:27.641Z,22.08
2023-03-31T11:54:27.636Z,22.07
2023-03-31T11:55:27.624Z,22.07
2023-03-31T11:56:27.647Z,22.08
2023-03-31T11:57:27.771Z,22.06
2023-03-31T11:58:27.591Z,22.07
2023-03-31T11:59:27.610Z,22.06
2023-03-31T12:00:27.581Z,22.06
2023-03-31T12:01:27.562Z,22.06
2023-03-31T12:02:27.593Z,22.05
2023-03-31T12:03:27.756Z,22.06
2023-03-31T12:04:27.541Z,22.05
2023-03-31T12:05:27.570Z,22.04
2023-03-31T12:06:27.564Z,22.03
2023-03-31T12:07:28.251Z,22.04
2023-03-31T12:08:27.528Z,22.02
2023-03-31T12:09:27.579Z,22.01
2023-03-31T12:10:27.580Z,21.99
2023-03-31T12:11:27.753Z,21.96
2023-03-31T12:12:27.697Z,21.94
2023-03-31T12:13:27.704Z,21.94
2023-03-31T12:14:27.743Z,21.94
2023-03-31T12:15:27.771Z,21.95
2023-03-31T12:16:27.850Z,21.95
2023-03-31T12:17:28.253Z,21.95
2023-03-31T12:18:27.884Z,21.97
2023-03-31T12:19:27.934Z,21.98
2023-03-31T12:20:27.927Z,22.00
2023-03-31T12:21:27.962Z,22.00
2023-03-31T12:22:27.990Z,22.02
2023-03-31T12:23:28.027Z,22.02
2023-03-31T12:24:28.042Z,22.03
2023-03-31T12:25:28.073Z,22.05
2023-03-31T12:26:28.096Z,22.06
2023-03-31T12:27:28.250Z,22.08
2023-03-31T12:28:28.151Z,22.10
2023-03-31T12:29:28.155Z,22.12
2023-03-31T12:30:28.183Z,22.12
2023-03-31T12:31:28.206Z,22.14
2023-03-31T12:32:28.250Z,22.15
2023-03-31T12:33:28.228Z,22.17
2023-03-31T12:34:28.240Z,22.18
2023-03-31T12:35:28.261Z,22.19
2023-03-31T12:36:28.291Z,22.21
2023-03-31T12:37:28.752Z,22.23
2023-03-31T12:38:28.322Z,22.24
2023-03-31T12:39:28.311Z,22.27
2023-03-31T12:40:28.327Z,22.29
2023-03-31T12:41:28.352Z,22.29
2023-03-31T12:42:28.757Z,22.31
2023-03-31T12:43:28.359Z,22.31
2023-03-31T12:44:28.396Z,22.31
2023-03-31T12:45:28.388Z,22.31
2023-03-31T12:46:28.450Z,22.32
2023-03-31T12:47:28.786Z,22.32
2023-03-31T12:48:28.420Z,22.31
2023-03-31T12:49:28.418Z,22.31
2023-03-31T12:50:28.427Z,22.31
2023-03-31T12:51:28.444Z,22.31
2023-03-31T12:52:28.769Z,22.32